Time;durP1;ratioP1;P1;durP2;ratioP2;P2;SDS_P1;SDS_P2;PMS_P1;PMS_P2;Temp;Humidity;BMP_temperature;BMP_pressure;BME280_temperature;BME280_humidity;BME280_pressure;Samples;Min_cycle;Max_cycle;Signal;HPM_P1;HPM_P2
2022/08/28 00:01:24;;;;;;;24.02;13.82;;;;;;;19.63;91.78;98883.34;8405090;28;20451;-74
2022/08/28 00:05:27;;;;;;;27.05;14.90;;;;;;;19.54;92.34;98891.09;8410887;28;20143;-74
2022/08/28 00:09:28;;;;;;;22.17;13.68;;;;;;;19.49;92.47;98888.69;8425408;28;20058;-74
2022/08/28 00:13:30;;;;;;;22.98;15.10;;;;;;;19.43;92.81;98884.66;8425538;28;20047;-74
2022/08/28 00:17:31;;;;;;;25.27;16.10;;;;;;;19.41;93.00;98893.22;8424818;28;20052;-73
2022/08/28 00:21:32;;;;;;;27.40;15.43;;;;;;;19.39;92.65;98900.25;8425828;28;20134;-73
2022/08/28 00:25:36;;;;;;;26.65;16.67;;;;;;;19.35;92.95;98896.69;8425530;28;20048;-74
2022/08/28 00:29:37;;;;;;;24.48;15.52;;;;;;;19.32;93.25;98894.69;8415804;28;20048;-74
2022/08/28 00:33:38;;;;;;;25.58;16.50;;;;;;;19.26;93.07;98890.69;8426362;28;20044;-73
2022/08/28 00:37:39;;;;;;;31.17;21.63;;;;;;;19.19;93.27;98896.09;8347694;28;20103;-74
2022/08/28 00:41:40;;;;;;;31.80;20.35;;;;;;;19.18;93.21;98897.25;8327419;28;20057;-73
2022/08/28 00:45:41;;;;;;;32.42;20.63;;;;;;;19.15;93.52;98889.75;8341507;28;20045;-74
2022/08/28 00:49:49;;;;;;;36.85;24.25;;;;;;;19.12;93.75;98890.50;8337891;28;20095;-74
2022/08/28 00:53:50;;;;;;;36.05;23.95;;;;;;;19.10;93.90;98888.13;8349368;28;20049;-74
2022/08/28 00:57:57;;;;;;;35.28;24.05;;;;;;;19.09;93.85;98891.25;8343096;28;20437;-74
2022/08/28 01:01:59;;;;;;;45.08;25.75;;;;;;;19.05;94.01;98890.41;8263273;28;20173;-74
2022/08/28 01:06:01;;;;;;;36.25;25.35;;;;;;;19.04;93.93;98888.81;8262377;28;20113;-74
2022/08/28 01:10:05;;;;;;;37.50;24.77;;;;;;;19.01;93.95;98889.56;8247098;28;20129;-74
2022/08/28 01:14:07;;;;;;;35.95;25.08;;;;;;;18.97;94.00;98884.06;8291085;28;20099;-74
2022/08/28 01:18:10;;;;;;;41.38;27.05;;;;;;;18.94;94.12;98891.03;8352746;28;20045;-73
2022/08/28 01:22:23;;;;;;;44.88;29.15;;;;;;;18.95;94.40;98892.63;8360307;28;20052;-74
2022/08/28 01:26:27;;;;;;;43.85;27.10;;;;;;;18.94;94.34;98891.03;8343745;28;20044;-74
2022/08/28 01:30:30;;;;;;;49.78;29.80;;;;;;;18.87;94.97;98901.91;8366288;28;20045;-74
2022/08/28 01:34:32;;;;;;;44.70;28.60;;;;;;;18.83;94.76;98897.50;8431037;28;20051;-73
2022/08/28 01:38:33;;;;;;;48.45;31.45;;;;;;;18.82;95.28;98893.97;8430571;28;20056;-75
2022/08/28 01:42:38;;;;;;;49.58;29.73;;;;;;;18.85;95.36;98887.78;8430782;28;20076;-74
2022/08/28 01:46:41;;;;;;;50.35;32.83;;;;;;;18.82;95.42;98893.97;8405590;28;20070;-73
2022/08/28 01:50:42;;;;;;;49.22;31.15;;;;;;;18.82;95.45;98888.50;8431026;28;20040;-73
2022/08/28 01:54:43;;;;;;;47.85;30.85;;;;;;;18.80;95.37;98888.09;8407804;28;20044;-73
2022/08/28 01:58:46;;;;;;;46.53;29.08;;;;;;;18.75;95.30;98893.88;8429914;28;20040;-73
2022/08/28 02:02:47;;;;;;;41.28;25.65;;;;;;;18.64;95.48;98887.47;8430145;28;20597;-72
2022/08/28 02:06:49;;;;;;;44.70;27.80;;;;;;;18.57;95.66;98887.34;8430175;28;20086;-72
2022/08/28 02:10:51;;;;;;;44.38;29.90;;;;;;;18.55;95.81;98884.19;8427999;28;20074;-72
2022/08/28 02:14:53;;;;;;;49.90;30.10;;;;;;;18.54;95.57;98888.09;8410635;28;20051;-73
2022/08/28 02:18:55;;;;;;;45.85;30.17;;;;;;;18.53;95.55;98881.00;8420346;28;20063;-73
2022/08/28 02:22:56;;;;;;;42.95;28.98;;;;;;;18.47;95.80;98877.00;8389754;28;20127;-73
2022/08/28 02:26:57;;;;;;;54.33;31.80;;;;;;;18.47;95.88;98877.00;8391806;28;20056;-73
2022/08/28 02:30:58;;;;;;;49.78;32.35;;;;;;;18.47;96.06;98877.00;8391451;28;20040;-75
2022/08/28 02:34:59;;;;;;;46.53;32.58;;;;;;;18.44;96.04;98878.53;8374473;28;20066;-74
2022/08/28 02:39:00;;;;;;;51.78;34.95;;;;;;;18.44;96.00;98872.28;8341135;28;20145;-74
2022/08/28 02:43:02;;;;;;;47.50;32.83;;;;;;;18.46;95.88;98876.19;8387627;28;20086;-74
2022/08/28 02:47:03;;;;;;;49.65;32.60;;;;;;;18.46;95.80;98875.41;8370631;28;20093;-74
2022/08/28 02:51:07;;;;;;;51.05;31.55;;;;;;;18.44;96.33;98883.22;8388214;28;20089;-74
2022/08/28 02:55:10;;;;;;;58.90;36.90;;;;;;;18.48;96.42;98884.03;8425319;28;20060;-74
2022/08/28 02:59:12;;;;;;;53.05;34.28;;;;;;;18.53;96.26;98881.00;8428064;28;20432;-74
2022/08/28 03:03:13;;;;;;;54.85;36.28;;;;;;;18.57;96.67;98881.88;8420529;28;20034;-74
2022/08/28 03:07:15;;;;;;;63.80;36.67;;;;;;;18.66;96.77;98879.69;8428038;28;20051;-74
2022/08/28 03:11:16;;;;;;;64.07;42.85;;;;;;;18.74;98.25;98886.84;8427701;28;20051;-74
2022/08/28 03:15:17;;;;;;;71.78;41.33;;;;;;;18.82;98.74;98885.75;8427122;28;20040;-74
2022/08/28 03:19:18;;;;;;;74.60;44.58;;;;;;;18.90;98.72;98890.19;8375680;28;20037;-75
2022/08/28 03:23:25;;;;;;;74.05;43.75;;;;;;;18.96;99.69;98880.53;8400846;28;20048;-75
2022/08/28 03:27:26;;;;;;;85.38;45.15;;;;;;;18.96;100.00;98883.25;8427791;28;20063;-75
2022/08/28 03:31:28;;;;;;;80.60;44.90;;;;;;;19.03;100.00;98887.25;8427064;28;20052;-75
2022/08/28 03:35:29;;;;;;;79.78;44.10;;;;;;;19.05;100.00;98885.72;8426964;28;20048;-75
2022/08/28 03:39:30;;;;;;;77.93;45.58;;;;;;;19.07;100.00;98888.09;8416979;28;20124;-74
2022/08/28 03:43:32;;;;;;;78.82;45.00;;;;;;;19.11;100.00;98880.72;8426718;28;20401;-74
2022/08/28 03:47:38;;;;;;;82.47;47.45;;;;;;;19.14;100.00;98888.19;8426909;28;20082;-74
2022/08/28 03:51:39;;;;;;;81.20;45.28;;;;;;;19.19;100.00;98887.88;8390774;28;20055;-74
2022/08/28 03:55:41;;;;;;;82.47;45.65;;;;;;;19.22;100.00;98889.84;8412844;28;20408;-74
2022/08/28 03:59:42;;;;;;;86.28;46.83;;;;;;;19.24;100.00;98887.53;8427376;28;20900;-74
2022/08/28 04:03:43;;;;;;;86.25;46.25;;;;;;;19.23;100.00;98885.97;8425495;28;20032;-74
2022/08/28 04:07:44;;;;;;;94.20;43.88;;;;;;;19.24;100.00;98893.03;8393116;28;20478;-74
2022/08/28 04:11:45;;;;;;;100.95;45.20;;;;;;;19.25;100.00;98894.56;8424948;28;20545;-74
2022/08/28 04:15:58;;;;;;;119.65;42.55;;;;;;;19.24;100.00;98906.72;8378011;28;20143;-75
2022/08/28 04:19:59;;;;;;;133.68;44.83;;;;;;;19.23;100.00;98913.34;8412546;28;20044;-75
2022/08/28 04:24:00;;;;;;;127.40;44.38;;;;;;;19.23;100.00;98907.88;8424229;28;20063;-75
2022/08/28 04:28:01;;;;;;;104.28;45.05;;;;;;;19.29;100.00;98918.13;8425949;28;20679;-75
2022/08/28 04:32:03;;;;;;;120.25;43.53;;;;;;;19.29;100.00;98917.34;8411454;28;20049;-75
2022/08/28 04:36:06;;;;;;;150.77;42.05;;;;;;;19.30;100.00;98918.91;8425906;28;20046;-74
2022/08/28 04:40:09;;;;;;;137.80;39.92;;;;;;;19.25;100.00;98927.44;8424623;28;20051;-74
2022/08/28 04:44:10;;;;;;;97.70;40.40;;;;;;;19.23;100.00;98924.28;8424430;28;20093;-75
2022/08/28 04:48:13;;;;;;;169.90;39.80;;;;;;;19.23;100.00;98918.81;8425657;28;20062;-75
2022/08/28 04:52:14;;;;;;;86.03;40.83;;;;;;;19.28;100.00;98932.19;8424800;28;20052;-75
2022/08/28 04:56:17;;;;;;;76.82;40.55;;;;;;;19.33;100.00;98926.38;8422090;28;20044;-75
2022/08/28 05:00:18;;;;;;;79.22;40.50;;;;;;;19.34;100.00;98930.72;8423657;28;20097;-75
2022/08/28 05:04:19;;;;;;;171.55;39.10;;;;;;;19.35;100.00;98932.28;8411200;28;20048;-75
2022/08/28 05:08:22;;;;;;;152.30;41.60;;;;;;;19.32;100.00;98933.00;8383488;28;20489;-75
2022/08/28 05:12:23;;;;;;;156.95;40.70;;;;;;;19.36;100.00;98933.84;8419483;28;20122;-75
2022/08/28 05:16:24;;;;;;;122.50;42.10;;;;;;;19.36;100.00;98928.38;8406043;28;20201;-75
2022/08/28 05:20:26;;;;;;;127.70;40.35;;;;;;;19.35;100.00;98926.81;8396150;28;20113;-75
2022/08/28 05:24:27;;;;;;;110.20;38.97;;;;;;;19.37;100.00;98935.44;8404793;28;20135;-75
2022/08/28 05:28:28;;;;;;;79.50;41.15;;;;;;;19.36;100.00;98933.84;8410994;28;20043;-74
2022/08/28 05:32:29;;;;;;;107.88;40.13;;;;;;;19.37;100.00;98936.22;8424831;28;20040;-74
2022/08/28 05:36:35;;;;;;;113.15;40.83;;;;;;;19.37;100.00;98946.38;8424383;28;20408;-75
2022/08/28 05:40:44;;;;;;;75.18;40.33;;;;;;;19.42;100.00;98954.28;8424555;28;20051;-74
2022/08/28 05:44:45;;;;;;;91.50;38.42;;;;;;;19.43;100.00;98944.91;8407960;28;20032;-75
2022/08/28 05:48:48;;;;;;;120.10;39.47;;;;;;;19.48;100.00;98941.88;8404442;28;20468;-74
2022/08/28 05:52:51;;;;;;;148.93;39.58;;;;;;;19.51;100.00;98952.06;8405184;28;20117;-75
2022/08/28 05:56:52;;;;;;;141.82;41.10;;;;;;;19.50;100.00;98953.25;8430431;28;20040;-74
2022/08/28 06:00:54;;;;;;;107.80;37.97;;;;;;;19.51;100.00;98952.06;8422299;28;20618;-73
2022/08/28 06:04:56;;;;;;;185.68;39.72;;;;;;;19.49;100.00;98954.41;8430301;28;20529;-74
2022/08/28 06:08:59;;;;;;;202.93;37.65;;;;;;;19.54;100.00;98948.59;8412034;28;20040;-74
2022/08/28 06:13:01;;;;;;;108.30;39.90;;;;;;;19.54;100.00;98940.38;8407723;28;20131;-74
2022/08/28 06:17:03;;;;;;;163.68;39.58;;;;;;;19.63;100.00;98948.31;8410618;28;20036;-75
2022/08/28 06:21:04;;;;;;;117.10;39.75;;;;;;;19.64;100.00;98939.72;8402016;28;20438;-74
2022/08/28 06:25:06;;;;;;;131.35;38.83;;;;;;;19.65;100.00;98952.28;8398190;28;20427;-73
2022/08/28 06:29:10;;;;;;;258.77;40.20;;;;;;;19.64;100.00;98950.69;8395146;28;20044;-74
2022/08/28 06:33:12;;;;;;;174.52;39.92;;;;;;;19.63;100.00;98948.31;8429555;28;20460;-74
2022/08/28 06:37:13;;;;;;;170.85;39.13;;;;;;;19.62;100.00;98958.47;8429551;28;20168;-74
2022/08/28 06:41:14;;;;;;;218.93;39.25;;;;;;;19.59;100.00;98959.22;8428651;28;20040;-73
2022/08/28 06:45:15;;;;;;;182.05;43.80;;;;;;;19.60;100.00;98960.81;8422307;28;20468;-73
2022/08/28 06:49:16;;;;;;;127.88;42.78;;;;;;;19.65;100.00;98963.22;8429167;28;20055;-73
2022/08/28 06:53:18;;;;;;;142.13;41.10;;;;;;;19.70;100.00;98965.63;8428423;28;20052;-73
2022/08/28 06:57:19;;;;;;;123.90;40.30;;;;;;;19.71;100.00;98961.75;8427891;28;20385;-73
2022/08/28 07:01:29;;;;;;;111.05;42.80;;;;;;;19.75;100.00;98965.31;8424485;28;20477;-74
2022/08/28 07:05:29;;;;;;;108.15;43.20;;;;;;;19.77;100.00;98970.44;8426831;28;20086;-74
2022/08/28 07:09:30;;;;;;;106.15;44.88;;;;;;;19.80;100.00;98964.97;8393160;28;20044;-75
2022/08/28 07:13:31;;;;;;;124.13;44.38;;;;;;;19.85;100.00;98971.28;8427492;28;20127;-75
2022/08/28 07:17:32;;;;;;;115.00;46.40;;;;;;;19.90;100.00;98976.44;8427135;28;20093;-74
2022/08/28 07:21:35;;;;;;;113.80;46.15;;;;;;;19.90;100.00;98979.19;8427290;28;20660;-74
2022/08/28 07:25:40;;;;;;;115.47;46.13;;;;;;;19.88;100.00;98976.03;8427274;28;20036;-74
2022/08/28 07:29:41;;;;;;;115.50;47.00;;;;;;;19.99;100.00;98979.66;8427738;28;20062;-74
2022/08/28 07:33:42;;;;;;;126.88;50.33;;;;;;;20.04;100.00;98980.13;8427821;28;20048;-74
2022/08/28 07:37:44;;;;;;;132.52;49.83;;;;;;;20.12;100.00;98981.00;8407917;28;20052;-74
2022/08/28 07:41:45;;;;;;;120.57;48.22;;;;;;;20.17;100.00;98994.38;8411827;28;20043;-74
2022/08/28 07:45:47;;;;;;;106.88;45.65;;;;;;;20.14;100.00;98979.47;8426820;28;20052;-74
2022/08/28 07:49:48;;;;;;;122.60;46.67;;;;;;;20.15;100.00;98974.75;8426805;28;20040;-74
2022/08/28 07:53:56;;;;;;;107.80;47.03;;;;;;;20.18;100.00;98985.00;8426853;28;20056;-73
2022/08/28 07:57:57;;;;;;;99.45;44.05;;;;;;;20.20;100.00;98996.34;8426894;28;20040;-74
2022/08/28 08:01:58;;;;;;;100.40;44.58;;;;;;;20.27;100.00;98981.94;8426450;28;20420;-74
2022/08/28 08:06:01;;;;;;;93.03;43.15;;;;;;;20.37;100.00;98998.53;8425259;28;20151;-74
2022/08/28 08:10:03;;;;;;;90.25;41.78;;;;;;;20.46;100.00;98996.28;8425557;28;20044;-74
2022/08/28 08:14:04;;;;;;;81.70;41.88;;;;;;;20.53;100.00;99006.53;8424714;28;20059;-74
2022/08/28 08:18:05;;;;;;;82.50;39.88;;;;;;;20.69;100.00;99004.34;8413075;28;20561;-74
2022/08/28 08:22:06;;;;;;;77.18;40.35;;;;;;;20.85;100.00;99006.84;8404931;28;20126;-74
2022/08/28 08:26:11;;;;;;;70.82;38.47;;;;;;;20.89;100.00;99007.63;8426141;28;20089;-74
2022/08/28 08:30:12;;;;;;;75.85;39.15;;;;;;;21.02;100.00;99017.19;8411785;28;20118;-74
2022/08/28 08:34:15;;;;;;;63.88;35.30;;;;;;;21.17;100.00;99018.91;8415044;28;20059;-74
2022/08/28 08:38:16;;;;;;;68.43;36.92;;;;;;;21.25;100.00;99023.28;8425809;28;20040;-74
2022/08/28 08:42:29;;;;;;;61.20;34.55;;;;;;;21.31;100.00;99023.69;8422367;28;20046;-74
2022/08/28 08:47:07;;;;;;;61.90;31.77;;;;;;;21.31;100.00;99018.97;8408207;28;20134;-74
2022/08/28 08:51:24;;;;;;;55.47;31.55;;;;;;;21.38;100.00;99024.53;8424021;28;20121;-74
2022/08/28 08:55:25;;;;;;;57.78;32.30;;;;;;;21.28;100.00;99025.25;8420957;28;20067;-74
2022/08/28 08:59:30;;;;;;;52.25;32.13;;;;;;;21.32;100.00;99020.56;8426241;28;20044;-74
2022/08/28 09:03:54;;;;;;;54.40;30.63;;;;;;;21.29;100.00;99032.34;8409345;28;20072;-75
2022/08/28 09:07:58;;;;;;;48.00;31.02;;;;;;;21.33;100.00;99032.34;8422981;28;20052;-75
2022/08/28 09:12:06;;;;;;;47.58;30.55;;;;;;;21.47;100.00;99033.22;8411639;28;20086;-75
2022/08/28 09:16:19;;;;;;;51.60;28.63;;;;;;;21.68;99.24;99020.81;8424848;28;20052;-75
2022/08/28 09:20:23;;;;;;;50.15;27.27;;;;;;;21.75;98.60;99026.31;8428413;28;20143;-75
2022/08/28 09:24:35;;;;;;;39.10;26.67;;;;;;;21.88;97.44;99033.09;8413651;28;20044;-75
2022/08/28 09:28:39;;;;;;;36.83;24.98;;;;;;;22.13;96.34;99025.75;8430880;28;20076;-74
2022/08/28 09:32:44;;;;;;;34.75;23.17;;;;;;;22.51;94.38;99029.00;8386802;28;20044;-74
2022/08/28 09:36:45;;;;;;;34.38;22.35;;;;;;;22.74;92.95;99037.72;8404696;28;20045;-74
2022/08/28 09:45:20;;;;;;;30.83;20.52;;;;;;;22.55;90.96;99046.31;8423443;28;20079;-74
2022/08/28 09:49:24;;;;;;;32.33;21.58;;;;;;;22.39;91.58;99048.63;8431823;28;20035;-74
2022/08/28 09:53:27;;;;;;;31.80;20.95;;;;;;;22.25;91.80;99044.66;8431817;28;20529;-75
2022/08/28 09:57:28;;;;;;;29.00;19.10;;;;;;;22.25;92.29;99039.16;8416620;28;20611;-74
2022/08/28 10:01:41;;;;;;;30.00;19.35;;;;;;;22.40;92.23;99047.44;8409849;28;20048;-75
2022/08/28 10:05:59;;;;;;;29.75;19.23;;;;;;;22.62;90.92;99047.13;8430990;28;20408;-74
2022/08/28 10:10:21;;;;;;;25.38;18.33;;;;;;;22.90;89.96;99035.38;8430635;28;20429;-74
2022/08/28 10:15:00;;;;;;;28.05;18.05;;;;;;;22.98;88.47;99042.47;8430565;28;20097;-74
2022/08/28 10:19:18;;;;;;;;;;;;;;;23.17;88.02;99039.31;8327921;28;20123;-74
2022/08/28 10:23:48;;;;;;;30.85;19.48;;;;;;;23.45;87.18;99043.22;8310618;28;19921;-74
2022/08/28 10:28:23;;;;;;;29.38;19.52;;;;;;;23.43;86.16;99040.88;8219963;28;20060;-74
2022/08/28 10:32:41;;;;;;;28.17;19.10;;;;;;;23.43;86.24;99040.88;8228906;28;20066;-74
2022/08/28 10:36:42;;;;;;;;;;;;;;;23.63;86.33;99032.22;8230026;28;20051;-75
2022/08/28 10:40:57;;;;;;;27.83;19.83;;;;;;;23.83;84.39;99047.91;8229404;28;19933;-74
2022/08/28 10:45:09;;;;;;;33.22;19.98;;;;;;;23.87;83.10;99037.66;8196739;29;20047;-74
2022/08/28 10:49:16;;;;;;;32.97;19.58;;;;;;;23.93;83.03;99041.56;8133854;29;20059;-74
2022/08/28 10:53:21;;;;;;;29.98;21.23;;;;;;;23.91;83.30;99043.94;8133613;29;20079;-75
2022/08/28 10:57:34;;;;;;;31.83;20.52;;;;;;;23.85;83.07;99039.22;8133744;29;20056;-74
2022/08/28 11:01:39;;;;;;;30.13;20.27;;;;;;;24.10;83.23;99039.16;8133769;29;20084;-74
2022/08/28 11:05:48;;;;;;;30.40;19.33;;;;;;;24.35;82.31;99034.31;8282178;28;20551;-74
2022/08/28 11:09:49;;;;;;;36.75;21.55;;;;;;;24.23;81.58;99032.00;8297907;28;20046;-74
2022/08/28 11:14:09;;;;;;;31.67;21.38;;;;;;;23.93;82.37;99029.75;8256031;28;20567;-74
2022/08/28 11:18:12;;;;;;;30.63;21.23;;;;;;;23.68;83.31;99029.84;8299948;28;20053;-74
2022/08/28 11:22:20;;;;;;;32.78;20.80;;;;;;;23.49;83.97;99022.00;8344488;28;20061;-74
2022/08/28 11:26:39;;;;;;;35.17;20.52;;;;;;;23.34;84.61;99032.22;8358585;28;20456;-74
2022/08/28 11:30:44;;;;;;;31.55;21.10;;;;;;;23.35;85.34;99033.00;8357563;28;20056;-74
2022/08/28 11:34:58;;;;;;;31.75;20.27;;;;;;;23.22;85.88;99040.09;8342124;28;20049;-74
2022/08/28 11:39:03;;;;;;;33.35;21.00;;;;;;;23.03;86.80;99044.84;8357806;28;20045;-74
2022/08/28 11:43:13;;;;;;;45.40;27.45;;;;;;;22.56;90.70;99042.38;8356837;28;20053;-74
2022/08/28 11:47:34;;;;;;;63.67;30.65;;;;;;;21.84;96.82;99065.25;8365662;28;20064;-73
2022/08/28 11:51:47;;;;;;;72.57;31.83;;;;;;;21.52;99.33;99067.03;8415464;28;20044;-75
2022/08/28 11:56:07;;;;;;;72.80;30.50;;;;;;;21.28;100.00;99069.19;8418295;28;20106;-75
2022/08/28 12:00:20;;;;;;;46.97;30.25;;;;;;;21.19;100.00;99063.25;8402167;28;20538;-75
2022/08/28 12:04:22;;;;;;;51.17;28.95;;;;;;;21.18;100.00;99061.66;8422815;28;20040;-75
2022/08/28 12:08:57;;;;;;;37.85;26.77;;;;;;;21.18;100.00;99058.91;8393141;28;20037;-75
2022/08/28 12:13:03;;;;;;;42.75;28.45;;;;;;;21.36;100.00;99053.56;8423067;28;20048;-75
2022/08/28 12:17:15;;;;;;;58.72;27.33;;;;;;;21.53;100.00;99052.09;8409505;28;20046;-75
2022/08/28 12:21:20;;;;;;;47.05;29.35;;;;;;;21.74;100.00;99063.22;8427774;28;20043;-75
2022/08/28 12:25:26;;;;;;;40.80;27.60;;;;;;;21.80;100.00;99053.44;8422273;28;20056;-75
2022/08/28 12:29:31;;;;;;;38.97;27.65;;;;;;;21.97;100.00;99063.00;8378694;28;20052;-75
2022/08/28 12:33:47;;;;;;;42.25;26.98;;;;;;;22.01;100.00;99067.34;8414309;28;20048;-76
2022/08/28 12:37:52;;;;;;;36.90;24.20;;;;;;;22.03;100.00;99070.50;8396440;28;20040;-76
2022/08/28 12:41:53;;;;;;;33.80;23.45;;;;;;;21.96;100.00;99069.66;8422840;28;20085;-75
2022/08/28 12:45:58;;;;;;;35.85;22.95;;;;;;;21.82;100.00;99075.84;8419078;28;20067;-75
2022/08/28 12:50:35;;;;;;;22.98;18.13;;;;;;;21.62;100.00;99088.28;8425616;28;20051;-75
2022/08/28 12:54:39;;;;;;;19.77;13.85;;;;;;;21.36;100.00;99081.81;8416025;28;20045;-73
2022/08/28 12:58:41;;;;;;;17.17;11.48;;;;;;;21.07;100.00;99085.47;8417351;28;20095;-74
2022/08/28 13:02:42;;;;;;;28.05;10.75;;;;;;;20.88;100.00;99093.94;8419249;28;20048;-74
2022/08/28 13:06:43;;;;;;;13.50;9.15;;;;;;;20.76;100.00;99097.72;8426736;28;20044;-76
2022/08/28 13:10:48;;;;;;;18.75;9.50;;;;;;;20.74;100.00;99093.75;8425354;28;20040;-75
2022/08/28 13:14:51;;;;;;;12.85;8.57;;;;;;;20.83;100.00;99097.00;8423270;28;20094;-75
2022/08/28 13:19:09;;;;;;;15.40;8.98;;;;;;;20.92;100.00;99100.22;8426432;28;20484;-74
2022/08/28 13:23:27;;;;;;;15.02;7.88;;;;;;;21.03;100.00;99098.38;8423501;28;20094;-74
2022/08/28 13:27:28;;;;;;;9.63;7.70;;;;;;;21.11;100.00;99097.25;8400554;28;20038;-74
2022/08/28 13:31:39;;;;;;;12.43;7.38;;;;;;;21.25;100.00;99097.44;8379496;28;20049;-74
2022/08/28 13:35:40;;;;;;;8.48;6.45;;;;;;;21.28;100.00;99093.91;8408755;28;20052;-74
2022/08/28 13:39:41;;;;;;;10.75;6.97;;;;;;;21.34;100.00;99095.16;8423478;28;20412;-74
2022/08/28 13:43:44;;;;;;;8.88;7.13;;;;;;;21.33;100.00;99090.81;8414250;28;20046;-73
2022/08/28 13:47:45;;;;;;;13.35;7.35;;;;;;;21.34;100.00;99095.16;8411345;28;20047;-73
2022/08/28 13:51:47;;;;;;;10.23;7.35;;;;;;;21.37;100.00;99099.06;8399379;28;20654;-73
2022/08/28 13:55:49;;;;;;;13.85;6.63;;;;;;;21.37;100.00;99105.38;8424065;28;20038;-72
2022/08/28 13:59:50;;;;;;;8.95;7.13;;;;;;;21.30;100.00;99099.84;8418737;28;20040;-73
2022/08/28 14:03:51;;;;;;;9.35;7.10;;;;;;;21.38;100.00;99100.66;8415320;28;20048;-72
2022/08/28 14:07:54;;;;;;;8.52;6.45;;;;;;;21.35;100.00;99101.44;8420395;28;20050;-73
2022/08/28 14:11:55;;;;;;;10.05;7.05;;;;;;;21.20;100.00;99114.28;8377007;28;20052;-73
2022/08/28 14:15:56;;;;;;;10.32;6.75;;;;;;;21.07;100.00;99101.94;8398383;28;20051;-74
2022/08/28 14:19:59;;;;;;;10.27;7.15;;;;;;;21.03;100.00;99101.13;8430685;28;20119;-73
2022/08/28 14:24:00;;;;;;;11.60;7.72;;;;;;;21.03;100.00;99114.84;8429363;28;20071;-74
2022/08/28 14:28:02;;;;;;;12.82;7.32;;;;;;;20.98;100.00;99112.44;8428867;28;20415;-73
2022/08/28 14:32:04;;;;;;;10.95;7.28;;;;;;;20.94;100.00;99117.09;8427466;28;20105;-72
2022/08/28 14:36:05;;;;;;;12.55;7.07;;;;;;;20.89;100.00;99111.94;8428629;28;20427;-73
2022/08/28 14:40:11;;;;;;;9.93;7.22;;;;;;;20.81;100.00;99126.78;8428350;28;20036;-74
2022/08/28 14:44:12;;;;;;;9.68;7.30;;;;;;;20.67;100.00;99126.63;8368486;28;20136;-73
2022/08/28 14:48:16;;;;;;;7.97;6.70;;;;;;;20.55;100.00;99120.22;8351290;28;20072;-74
2022/08/28 14:52:19;;;;;;;7.05;6.07;;;;;;;20.45;100.00;99120.91;8385508;28;20421;-73
2022/08/28 14:56:21;;;;;;;13.48;5.45;;;;;;;20.35;100.00;99118.81;8381394;28;20064;-74
2022/08/28 15:00:25;;;;;;;9.18;6.28;;;;;;;20.21;100.00;99122.13;8339099;28;20593;-74
2022/08/28 15:04:33;;;;;;;9.45;6.35;;;;;;;20.12;100.00;99123.56;8391498;28;20052;-74
2022/08/28 15:08:36;;;;;;;6.72;5.80;;;;;;;20.06;100.00;99122.31;8392720;28;20097;-74
2022/08/28 15:12:37;;;;;;;7.65;5.18;;;;;;;19.99;100.00;99124.94;8374253;28;20047;-74
2022/08/28 15:16:44;;;;;;;5.78;4.72;;;;;;;19.90;100.00;99132.66;8359957;28;20045;-74
2022/08/28 15:20:45;;;;;;;7.50;4.18;;;;;;;19.86;100.00;99126.34;8409445;28;20488;-74
2022/08/28 15:24:49;;;;;;;6.20;3.60;;;;;;;19.78;100.00;99123.47;8389978;28;20509;-74
2022/08/28 15:28:54;;;;;;;7.35;3.78;;;;;;;19.79;100.00;99121.53;8390044;28;20048;-74
2022/08/28 15:32:57;;;;;;;4.07;2.88;;;;;;;19.78;100.00;99115.25;8377753;28;20053;-74
2022/08/28 15:36:59;;;;;;;2.85;1.70;;;;;;;19.67;100.00;99119.78;8367020;28;20048;-74
2022/08/28 15:45:19;;;;;;;2.92;1.30;;;;;;;19.57;100.00;99120.41;8389301;28;20037;-74
2022/08/28 15:49:22;;;;;;;3.08;1.27;;;;;;;19.57;100.00;99128.63;8388336;28;20063;-74
2022/08/28 15:53:23;;;;;;;2.88;1.60;;;;;;;19.55;100.00;99122.75;8392553;28;20427;-74
2022/08/28 15:57:24;;;;;;;2.15;1.55;;;;;;;19.57;100.00;99142.34;8426592;28;20492;-75
2022/08/28 16:01:25;;;;;;;3.13;1.98;;;;;;;19.56;100.00;99129.81;8399693;28;20102;-74
2022/08/28 16:05:27;;;;;;;6.82;2.70;;;;;;;19.55;100.00;99139.19;8423285;28;20067;-75
2022/08/28 16:09:28;;;;;;;5.30;3.00;;;;;;;19.49;100.00;99135.16;8406319;28;20079;-73
2022/08/28 16:13:29;;;;;;;6.00;3.65;;;;;;;19.43;100.00;99136.59;8414003;28;20094;-73
2022/08/28 16:17:30;;;;;;;8.13;5.10;;;;;;;19.51;100.00;99141.06;8403270;28;20048;-74
2022/08/28 16:21:31;;;;;;;8.32;4.88;;;;;;;19.52;100.00;99134.44;8408102;28;20056;-73
2022/08/28 16:25:33;;;;;;;10.20;6.63;;;;;;;19.47;100.00;99142.94;8412993;28;20087;-74
2022/08/28 16:29:35;;;;;;;9.63;6.50;;;;;;;19.49;100.00;99154.34;8402372;28;20616;-74
2022/08/28 16:33:36;;;;;;;9.93;7.60;;;;;;;19.48;100.00;99155.50;8415002;28;20133;-73
2022/08/28 16:37:38;;;;;;;14.10;7.30;;;;;;;19.47;100.00;99153.91;8427184;28;20503;-74
2022/08/28 16:41:40;;;;;;;11.05;7.18;;;;;;;19.48;100.00;99155.50;8425713;28;20044;-74
2022/08/28 16:45:43;;;;;;;11.73;9.00;;;;;;;19.49;100.00;99161.78;8424678;28;20446;-75
2022/08/28 16:49:44;;;;;;;12.45;8.93;;;;;;;19.45;100.00;99167.19;8426392;28;20043;-74
2022/08/28 16:53:47;;;;;;;12.65;8.70;;;;;;;19.37;100.00;99165.44;8385028;28;20048;-73
2022/08/28 16:57:48;;;;;;;14.07;9.25;;;;;;;19.35;100.00;99167.78;8422115;28;20131;-75
2022/08/28 17:01:49;;;;;;;13.60;9.85;;;;;;;19.32;100.00;99165.75;8335554;28;20049;-73
2022/08/28 17:05:50;;;;;;;12.90;9.38;;;;;;;19.30;100.00;99165.31;8371834;28;20072;-73
2022/08/28 17:09:52;;;;;;;16.10;10.45;;;;;;;19.22;100.00;99166.34;8370886;28;20963;-74
2022/08/28 17:13:54;;;;;;;12.23;10.13;;;;;;;19.20;100.00;99182.34;8364058;28;20049;-74
2022/08/28 17:17:55;;;;;;;15.35;11.43;;;;;;;19.17;100.00;99183.88;8374706;28;20045;-73
2022/08/28 17:26:16;;;;;;;15.00;11.30;;;;;;;19.04;100.00;99195.34;8363421;28;20143;-74
2022/08/28 17:30:18;;;;;;;15.40;11.65;;;;;;;18.99;100.00;99189.03;8373900;28;20049;-73
2022/08/28 17:34:20;;;;;;;13.73;11.45;;;;;;;18.92;100.00;99188.91;8298638;28;20169;-74
2022/08/28 17:38:21;;;;;;;21.15;11.93;;;;;;;18.95;100.00;99190.91;8373578;28;20049;-73
2022/08/28 17:42:22;;;;;;;19.45;12.82;;;;;;;18.93;100.00;99189.66;8427124;28;20603;-73
2022/08/28 17:46:22;;;;;;;23.52;13.25;;;;;;;18.92;100.00;99197.13;8421289;28;20039;-73
2022/08/28 17:50:24;;;;;;;20.33;12.40;;;;;;;18.91;100.00;99198.25;8391472;28;20046;-73
2022/08/28 17:54:27;;;;;;;19.52;13.20;;;;;;;18.88;100.00;99193.50;8393671;28;20063;-74
2022/08/28 17:58:29;;;;;;;18.80;13.90;;;;;;;18.83;100.00;99207.47;8431505;28;20101;-73
2022/08/28 18:02:30;;;;;;;21.02;14.50;;;;;;;18.82;100.00;99211.34;8431151;28;20036;-73
2022/08/28 18:06:33;;;;;;;26.83;16.08;;;;;;;18.86;100.00;99217.72;8431286;28;20048;-74
2022/08/28 18:10:34;;;;;;;23.63;16.10;;;;;;;18.82;100.00;99219.56;8421960;28;20093;-73
2022/08/28 18:14:35;;;;;;;29.38;16.70;;;;;;;18.81;100.00;99220.72;8418105;28;20389;-72
2022/08/28 18:18:36;;;;;;;25.65;17.17;;;;;;;18.74;100.00;99226.06;8381910;28;20075;-72
2022/08/28 18:22:37;;;;;;;30.75;18.52;;;;;;;18.74;100.00;99226.06;8415864;28;20052;-73
2022/08/28 18:26:39;;;;;;;28.05;19.00;;;;;;;18.75;100.00;99238.59;8401486;28;20058;-73
2022/08/28 18:30:43;;;;;;;31.00;19.40;;;;;;;18.74;100.00;99239.72;8411217;28;20499;-73
2022/08/28 18:35:13;;;;;;;30.42;19.55;;;;;;;18.74;100.00;99247.94;8369357;28;20449;-73
2022/08/28 18:39:14;;;;;;;39.85;21.35;;;;;;;18.75;100.00;99249.53;8358459;28;20053;-73
2022/08/28 18:43:18;;;;;;;36.97;20.63;;;;;;;18.74;100.00;99250.66;8358798;28;20045;-72
2022/08/28 18:47:20;;;;;;;35.90;21.05;;;;;;;18.72;100.00;99261.16;8360163;28;20128;-73
2022/08/28 18:51:20;;;;;;;34.17;21.92;;;;;;;18.66;100.00;99257.16;8334265;28;20088;-72